Fort Mohave, Arizona
Current Conditions -  °F | °C
As of 10:55 PM on Saturday 25 Oct 2014 (Local Time) from KIFP Reporting Station
Clear Clear  
Wind Chill: 77°   Ceiling: Unl
Heat Index: 78°   Visibility: 10mi
Dew Point: 46°   Wind: 0mph
Humidity: 34%   Direction: NA
Pressure: 29.89"   Gusts: NA
Location:  35.01°N, 114.58°W
Report Text: KIFP 260555Z AUTO 00000KT 10SM CLR 25/08 A2989 RMK AO2 PWINO
Loading
Personal Weather Stations






























Interactive Weather Map
Tropical Storm Tracking
New forecast layout! Learn more

10-Day Weather Forecast

Advertisements
Track Severe Weather on mobile